Página principal
METAR-TAF:

Aeroportos :

Belo Horizonte, Minas Gerais, Brasil

Aeroporto Internacional de Belo Horizonte-Confins

latitude: 19-56S, longitude: 043-56W, altura: 850 m

Observação actual do tempo

O boletim foi feito há 54 minutos, às 14:00 UTC
Vento 7 kt de este
Temperatura 21°C
Humidade 43%
Pressão 1025 hPa
Visibilidade 10 km ou mais
sem nuvens abaixo de 1500 metros e sem cumulonimbus

METAR: SBCF 251400Z 09007KT CAVOK 21/08 Q1025

Hora: 11:54 (14:54 UTC)

Previsão

O boletim foi feito há 3 horas e 54 minutos, às 11:00 UTC
Previsão válida de 25 às 12 UTC a 26 às 12 UTC
Vento 8 kt de este
Visibilidade 10 km ou mais
sem nuvens abaixo de 1500 metros e sem cumulonimbus
Tornando-se
de 25 às 17 UTC a 25 às 19 UTC
Vento 5 kt de es-nordeste
Tornando-se
de 26 às 02 UTC a 26 às 04 UTC
Vento 4 kt de este

TAF: SBCF 251100Z 2512/2612 08008KT CAVOK TX26/2517Z TN14/2609Z BECMG 2517/2519 07005KT BECMG 2602/2604 10004KT RMK PEM

METAR-TAF

Observações e previsões do tempo de mais de 4000 aeroportos (mensagens METAR e TAF).

As estações disponíveis são os pontos amarelos e vermelhos sobre o mapa.

Mova o rato sobre o mapa para ver o nome da estação.

Depois clique no ponto para visualizar as observações e previsões meteorológicas.

Para alterar o mapa : clique nos botões verdes com uma cruz preta para aumentar o zoom; no botão verde com uma pitada de zoom; ou nas setas verdes para mapas adjacentes.


METAR-TAF: